Time;durP1;ratioP1;P1;durP2;ratioP2;P2;SDS_P1;SDS_P2;PMS_P1;PMS_P2;Temp;Humidity;BMP_temperature;BMP_pressure;BME280_temperature;BME280_humidity;BME280_pressure;Samples;Min_cycle;Max_cycle;Signal;HPM_P1;HPM_P2
2022/05/27 00:00:53;;;;;;;25.25;7.00;;;13.40;99.90;;;;;;5019241;28;20582;-83
2022/05/27 00:03:19;;;;;;;28.85;7.22;;;13.40;99.90;;;;;;5034821;28;20134;-83
2022/05/27 00:05:48;;;;;;;22.02;6.55;;;13.40;99.90;;;;;;5019488;28;20045;-83
2022/05/27 00:08:14;;;;;;;23.42;6.85;;;13.40;99.90;;;;;;5034953;28;20061;-83
2022/05/27 00:10:39;;;;;;;26.83;6.78;;;13.40;99.90;;;;;;5019455;28;20041;-83
2022/05/27 00:13:05;;;;;;;22.85;8.02;;;13.40;99.90;;;;;;5019809;28;20057;-84
2022/05/27 00:15:31;;;;;;;33.85;8.55;;;13.30;99.90;;;;;;5019387;28;20101;-82
2022/05/27 00:17:56;;;;;;;26.08;7.63;;;13.30;99.90;;;;;;5019195;28;20042;-83
2022/05/27 00:20:22;;;;;;;30.67;7.78;;;13.30;99.90;;;;;;5019010;28;20038;-83
2022/05/27 00:22:47;;;;;;;25.88;7.40;;;13.30;99.90;;;;;;5019236;28;20042;-83
2022/05/27 00:25:14;;;;;;;21.25;7.60;;;13.30;99.90;;;;;;5018830;28;20042;-83
2022/05/27 00:27:40;;;;;;;33.35;8.25;;;13.30;99.90;;;;;;5034590;28;20048;-83
2022/05/27 00:30:08;;;;;;;30.45;7.43;;;13.30;99.90;;;;;;5019237;28;20077;-83
2022/05/27 00:32:36;;;;;;;24.65;7.93;;;13.20;99.90;;;;;;5034648;28;20038;-83
2022/05/27 00:35:01;;;;;;;19.05;6.45;;;13.20;99.90;;;;;;5019360;28;20042;-82
2022/05/27 00:37:27;;;;;;;29.73;7.63;;;13.20;99.90;;;;;;5019058;28;20034;-82
2022/05/27 00:39:52;;;;;;;42.60;8.43;;;13.10;99.90;;;;;;5035379;28;20088;-82
2022/05/27 00:42:18;;;;;;;27.27;7.05;;;13.10;99.90;;;;;;5022350;28;20073;-83
2022/05/27 00:44:43;;;;;;;25.00;7.97;;;13.10;99.90;;;;;;5020217;28;20084;-82
2022/05/27 00:47:13;;;;;;;29.92;7.63;;;13.00;99.90;;;;;;5019972;28;20378;-82
2022/05/27 00:49:46;;;;;;;29.67;7.50;;;12.90;99.90;;;;;;5019765;28;20474;-82
2022/05/27 00:52:16;;;;;;;22.45;7.57;;;12.80;99.90;;;;;;5019935;28;20054;-83
2022/05/27 00:54:42;;;;;;;21.98;8.25;;;12.70;99.90;;;;;;5020186;28;20128;-83
2022/05/27 00:57:19;;;;;;;21.63;7.05;;;12.60;99.90;;;;;;5034367;28;20144;-82
2022/05/27 01:00:06;;;;;;;26.50;7.72;;;12.50;99.90;;;;;;5019658;28;20409;-82
2022/05/27 01:02:34;;;;;;;28.17;9.15;;;12.50;99.90;;;;;;5019463;28;20060;-82
2022/05/27 01:05:01;;;;;;;30.80;7.68;;;12.40;99.90;;;;;;5019543;28;20098;-82
2022/05/27 01:07:27;;;;;;;28.35;8.77;;;12.30;99.90;;;;;;5019649;28;20054;-83
2022/05/27 01:09:53;;;;;;;36.38;8.70;;;12.20;99.90;;;;;;5018806;28;20061;-83
2022/05/27 01:12:55;;;;;;;29.58;8.38;;;12.20;99.90;;;;;;5017974;28;20038;-83
2022/05/27 01:15:49;;;;;;;25.48;9.98;;;12.20;99.90;;;;;;5018449;28;20057;-83
2022/05/27 01:21:41;;;;;;;25.52;8.50;;;12.00;99.90;;;;;;5018150;28;20089;-83
2022/05/27 01:24:41;;;;;;;31.52;8.73;;;11.90;99.90;;;;;;5018473;28;20049;-83
2022/05/27 01:27:23;;;;;;;33.72;8.90;;;12.00;99.90;;;;;;5034207;28;20054;-83
2022/05/27 01:30:18;;;;;;;35.00;10.10;;;11.90;99.90;;;;;;5018445;28;20081;-83
2022/05/27 01:33:00;;;;;;;32.28;9.15;;;12.00;99.90;;;;;;5033972;28;20048;-83
2022/05/27 01:35:36;;;;;;;26.00;7.75;;;12.10;99.90;;;;;;5018450;28;20038;-82
2022/05/27 01:38:09;;;;;;;33.17;9.00;;;12.10;99.90;;;;;;5033846;28;20045;-83
2022/05/27 01:41:10;;;;;;;28.38;7.72;;;12.10;99.90;;;;;;5018736;28;20443;-82
2022/05/27 01:43:50;;;;;;;31.30;7.28;;;12.10;99.90;;;;;;5016461;28;20121;-83
2022/05/27 01:46:22;;;;;;;24.65;5.88;;;12.00;99.90;;;;;;5033922;28;20054;-83
2022/05/27 01:49:13;;;;;;;25.17;5.63;;;11.90;99.90;;;;;;5018872;28;20042;-83
2022/05/27 01:51:59;;;;;;;26.48;7.03;;;11.80;99.90;;;;;;5019090;28;20073;-83
2022/05/27 01:54:58;;;;;;;27.98;6.82;;;11.90;99.90;;;;;;5018523;28;20053;-83
2022/05/27 01:57:27;;;;;;;28.67;6.45;;;11.80;99.90;;;;;;5018590;28;20042;-83
2022/05/27 02:00:06;;;;;;;26.35;6.90;;;11.60;99.90;;;;;;5073173;22;20053;-76
2022/05/27 02:02:33;;;;;;;16.38;5.80;;;11.50;99.90;;;;;;5055801;28;20053;-76
2022/05/27 02:05:06;;;;;;;25.05;6.38;;;11.40;99.90;;;;;;5056416;28;20519;-76
2022/05/27 02:07:47;;;;;;;30.05;5.93;;;11.30;99.90;;;;;;5038829;28;20084;-76
2022/05/27 02:10:32;;;;;;;24.63;6.55;;;11.20;99.90;;;;;;5037062;28;20159;-76
2022/05/27 02:13:08;;;;;;;23.52;6.63;;;11.10;99.90;;;;;;5036276;28;20092;-76
2022/05/27 02:15:45;;;;;;;27.60;7.10;;;11.00;99.90;;;;;;5037335;28;20041;-76
2022/05/27 02:18:19;;;;;;;29.42;6.28;;;10.90;99.90;;;;;;5037556;28;20037;-76
2022/05/27 02:20:54;;;;;;;23.45;5.57;;;10.90;99.90;;;;;;5037674;28;20049;-76
2022/05/27 02:23:34;;;;;;;32.00;6.80;;;10.90;99.90;;;;;;5037665;28;20049;-76
2022/05/27 02:26:03;;;;;;;25.40;5.78;;;10.80;99.90;;;;;;5037504;28;20087;-76
2022/05/27 02:28:33;;;;;;;28.10;6.38;;;10.70;99.90;;;;;;5037398;28;20045;-77
2022/05/27 02:31:05;;;;;;;19.63;5.72;;;10.70;99.90;;;;;;5037272;28;20049;-76
2022/05/27 02:36:30;;;;;;;28.23;6.88;;;10.70;99.90;;;;;;5037084;28;20054;-75
2022/05/27 02:38:56;;;;;;;22.73;5.13;;;10.60;99.90;;;;;;5047153;28;20049;-76
2022/05/27 02:41:45;;;;;;;17.15;5.18;;;10.60;99.90;;;;;;5056817;28;20116;-76
2022/05/27 02:44:21;;;;;;;23.10;5.13;;;10.50;99.90;;;;;;5056344;28;20049;-76
2022/05/27 02:46:52;;;;;;;38.42;7.25;;;10.50;99.90;;;;;;5056250;28;20049;-76
2022/05/27 02:49:28;;;;;;;26.80;6.18;;;10.50;99.90;;;;;;5056432;28;20524;-75
2022/05/27 02:52:06;;;;;;;27.77;5.68;;;10.40;99.90;;;;;;5056422;28;20087;-76
2022/05/27 02:54:38;;;;;;;29.90;6.90;;;10.40;99.90;;;;;;5056142;28;20049;-76
2022/05/27 02:57:35;;;;;;;20.50;5.35;;;10.30;99.90;;;;;;5056402;28;20060;-76
2022/05/27 03:00:08;;;;;;;21.67;5.93;;;10.30;99.90;;;;;;5056227;28;20061;-76
2022/05/27 03:02:34;;;;;;;27.98;6.50;;;10.30;99.90;;;;;;5056146;28;20041;-76
2022/05/27 03:05:00;;;;;;;26.33;6.15;;;10.30;99.90;;;;;;5055782;28;20047;-76
2022/05/27 03:07:38;;;;;;;22.17;6.18;;;10.20;99.90;;;;;;5055746;28;20045;-77
2022/05/27 03:10:16;;;;;;;31.13;6.10;;;10.10;99.90;;;;;;5054211;28;20508;-76
2022/05/27 03:12:58;;;;;;;20.08;6.00;;;10.00;99.90;;;;;;5055413;28;20041;-76
2022/05/27 03:15:54;;;;;;;19.52;5.90;;;9.90;99.90;;;;;;5055594;28;20049;-76
2022/05/27 03:18:57;;;;;;;27.95;7.45;;;9.80;99.90;;;;;;5054534;28;20509;-76
2022/05/27 03:21:54;;;;;;;22.83;5.90;;;9.80;99.90;;;;;;5054174;28;20080;-76
2022/05/27 03:24:49;;;;;;;28.43;6.70;;;9.80;99.90;;;;;;5069568;28;20401;-76
2022/05/27 03:27:30;;;;;;;29.70;6.05;;;9.80;99.90;;;;;;5054061;28;20057;-76
2022/05/27 03:30:16;;;;;;;26.95;6.50;;;9.80;99.90;;;;;;5053847;28;20052;-76
2022/05/27 03:33:08;;;;;;;21.70;5.28;;;9.80;99.90;;;;;;5054137;28;20037;-76
2022/05/27 03:35:59;;;;;;;44.63;8.80;;;10.00;99.90;;;;;;5053360;28;20053;-76
2022/05/27 03:38:39;;;;;;;24.98;7.32;;;10.00;99.90;;;;;;5053795;28;20041;-76
2022/05/27 03:41:17;;;;;;;26.27;6.90;;;10.10;99.90;;;;;;5053652;28;20107;-77
2022/05/27 03:43:44;;;;;;;24.40;6.53;;;10.10;99.90;;;;;;5052756;28;20060;-76
2022/05/27 03:46:10;;;;;;;40.50;8.23;;;10.00;99.90;;;;;;5053573;28;20060;-77
2022/05/27 03:48:37;;;;;;;30.60;6.72;;;10.10;99.90;;;;;;5053537;28;20041;-76
2022/05/27 03:51:19;;;;;;;25.95;6.75;;;10.10;99.90;;;;;;5053447;28;20478;-76
2022/05/27 03:56:41;;;;;;;30.23;6.43;;;10.10;99.90;;;;;;5035011;28;20409;-76
2022/05/27 03:59:12;;;;;;;33.38;7.07;;;10.20;99.90;;;;;;5053025;28;20478;-76
2022/05/27 04:01:42;;;;;;;27.13;6.28;;;10.30;99.90;;;;;;5051790;28;20080;-76
2022/05/27 04:04:11;;;;;;;28.38;5.93;;;10.30;99.90;;;;;;5053255;28;20053;-76
2022/05/27 04:06:37;;;;;;;25.20;5.95;;;10.40;99.90;;;;;;5053278;28;20048;-76
2022/05/27 04:09:04;;;;;;;38.10;6.47;;;10.50;99.90;;;;;;5053175;28;20123;-76
2022/05/27 04:11:30;;;;;;;20.85;5.35;;;10.50;99.90;;;;;;5052839;28;20489;-76
2022/05/27 04:13:56;;;;;;;29.40;5.90;;;10.70;99.90;;;;;;5053306;28;20047;-76
2022/05/27 04:16:22;;;;;;;26.45;5.78;;;10.80;99.90;;;;;;5052781;28;20456;-76
2022/05/27 04:18:48;;;;;;;26.67;5.30;;;10.90;99.90;;;;;;5053140;28;20037;-76
2022/05/27 04:21:14;;;;;;;23.23;4.85;;;11.00;99.90;;;;;;5051166;28;20049;-77
2022/05/27 04:23:40;;;;;;;26.30;6.28;;;11.10;99.90;;;;;;5052943;28;20502;-76
2022/05/27 04:26:05;;;;;;;30.98;6.00;;;11.20;99.90;;;;;;5052692;28;20049;-75
2022/05/27 04:28:32;;;;;;;23.88;5.47;;;11.20;99.90;;;;;;5051535;28;20148;-76
2022/05/27 04:30:57;;;;;;;20.92;5.55;;;11.20;99.90;;;;;;5052969;28;20401;-76
2022/05/27 04:33:23;;;;;;;24.23;4.22;;;11.20;99.90;;;;;;5052774;28;20041;-76
2022/05/27 04:35:48;;;;;;;16.48;4.57;;;11.30;99.90;;;;;;5052759;28;20488;-76
2022/05/27 04:38:14;;;;;;;18.27;3.88;;;11.30;99.90;;;;;;5052745;28;20045;-76
2022/05/27 04:40:40;;;;;;;22.27;4.30;;;11.30;99.90;;;;;;5052372;28;20064;-77
2022/05/27 04:43:06;;;;;;;17.20;4.25;;;11.50;99.90;;;;;;5052445;28;20504;-76
2022/05/27 04:45:33;;;;;;;14.73;3.92;;;11.50;99.90;;;;;;5052632;28;20040;-76
2022/05/27 04:47:59;;;;;;;21.63;4.18;;;11.50;99.90;;;;;;5052641;28;20041;-76
2022/05/27 04:50:26;;;;;;;19.98;4.03;;;11.50;99.90;;;;;;5051156;28;20051;-77
2022/05/27 04:52:51;;;;;;;23.13;4.97;;;11.40;99.90;;;;;;5052717;28;20110;-77
2022/05/27 04:55:17;;;;;;;21.50;3.72;;;11.40;99.90;;;;;;5052229;28;20485;-76
2022/05/27 04:57:49;;;;;;;15.10;3.95;;;11.60;99.90;;;;;;5051172;28;20115;-77
2022/05/27 05:00:19;;;;;;;28.67;3.70;;;11.80;99.90;;;;;;5052113;28;20067;-77
2022/05/27 05:02:44;;;;;;;21.48;3.97;;;12.10;99.90;;;;;;5052378;28;20124;-76
2022/05/27 05:05:12;;;;;;;18.13;3.85;;;12.20;99.90;;;;;;5052520;28;20120;-77
2022/05/27 05:07:40;;;;;;;24.17;3.20;;;12.20;99.90;;;;;;5052373;28;20068;-76
2022/05/27 05:10:08;;;;;;;15.57;3.58;;;12.00;99.90;;;;;;5052080;28;20044;-76
2022/05/27 05:12:33;;;;;;;20.00;3.33;;;11.90;99.90;;;;;;5052161;28;20049;-77
2022/05/27 05:14:59;;;;;;;18.08;3.42;;;11.80;99.90;;;;;;5051040;28;20515;-77
2022/05/27 05:17:24;;;;;;;14.13;3.55;;;11.70;99.90;;;;;;5052266;28;20041;-77
2022/05/27 05:19:53;;;;;;;18.83;4.65;;;11.60;99.90;;;;;;5052247;28;20036;-76
2022/05/27 05:22:20;;;;;;;15.77;4.07;;;11.60;99.90;;;;;;5052047;28;20532;-76
2022/05/27 05:24:46;;;;;;;25.40;4.25;;;11.60;99.90;;;;;;5052132;28;20045;-77
2022/05/27 05:27:11;;;;;;;15.00;3.50;;;11.70;99.90;;;;;;5052054;28;20052;-76
2022/05/27 05:29:37;;;;;;;15.90;4.20;;;11.70;99.90;;;;;;5050830;28;20041;-77
2022/05/27 05:32:04;;;;;;;14.65;3.33;;;11.70;99.90;;;;;;5051881;28;20041;-76
2022/05/27 05:34:30;;;;;;;22.17;3.58;;;11.80;99.90;;;;;;5054921;28;20049;-77
2022/05/27 05:36:56;;;;;;;22.90;4.60;;;11.90;99.90;;;;;;5055914;28;20359;-77
2022/05/27 05:39:23;;;;;;;15.05;3.55;;;11.90;99.90;;;;;;5056308;28;20044;-76
2022/05/27 05:42:00;;;;;;;20.08;3.60;;;11.90;99.90;;;;;;5054666;28;20049;-76
2022/05/27 05:44:26;;;;;;;15.10;3.35;;;11.80;99.90;;;;;;5056127;28;20036;-77
2022/05/27 05:46:53;;;;;;;17.00;3.97;;;11.80;99.90;;;;;;5054572;28;20440;-77
2022/05/27 05:49:18;;;;;;;19.65;3.88;;;11.80;99.90;;;;;;5055920;28;20102;-77
2022/05/27 05:51:44;;;;;;;21.92;4.15;;;11.60;99.90;;;;;;5054830;28;20045;-77
2022/05/27 05:54:10;;;;;;;17.73;3.15;;;11.70;99.90;;;;;;5055755;28;20111;-77
2022/05/27 05:56:36;;;;;;;24.30;5.13;;;12.40;99.90;;;;;;5055809;28;20056;-77
2022/05/27 05:59:02;;;;;;;14.02;2.58;;;13.30;99.90;;;;;;5055953;28;20079;-77
2022/05/27 06:01:28;;;;;;;20.10;3.13;;;13.90;99.90;;;;;;5055136;28;20055;-77
2022/05/27 06:03:53;;;;;;;11.75;2.28;;;14.30;99.90;;;;;;5054229;28;20048;-77
2022/05/27 06:06:19;;;;;;;15.88;3.47;;;14.90;99.90;;;;;;5055342;28;20129;-76
2022/05/27 06:08:44;;;;;;;13.27;3.00;;;15.20;99.90;;;;;;5055608;28;20083;-77
2022/05/27 06:11:10;;;;;;;13.70;3.17;;;15.40;99.90;;;;;;5055308;28;20045;-77
2022/05/27 06:13:36;;;;;;;10.35;2.72;;;16.00;99.90;;;;;;5055533;28;20094;-77
2022/05/27 06:16:06;;;;;;;13.02;3.05;;;16.60;99.90;;;;;;5053841;28;20088;-77
2022/05/27 06:18:32;;;;;;;14.43;3.03;;;16.50;99.90;;;;;;5055391;28;20045;-77
2022/05/27 06:20:58;;;;;;;12.30;3.17;;;16.40;99.90;;;;;;5055553;28;20554;-77
2022/05/27 06:23:27;;;;;;;8.60;2.67;;;15.80;99.90;;;;;;5054105;28;20049;-76
2022/05/27 06:25:57;;;;;;;14.50;3.03;;;16.10;99.90;;;;;;5055360;28;20045;-77
2022/05/27 06:36:36;;;;;;;12.40;2.65;;;16.90;83.80;;;;;;5055126;28;20049;-77
2022/05/27 06:39:04;;;;;;;18.35;3.63;;;17.20;72.50;;;;;;5055022;28;20091;-77
2022/05/27 06:41:30;;;;;;;16.10;4.00;;;17.20;60.60;;;;;;5053458;28;20052;-77
2022/05/27 06:43:56;;;;;;;17.33;3.33;;;17.60;43.70;;;;;;5054716;28;20041;-77
2022/05/27 06:46:22;;;;;;;12.43;2.63;;;17.30;41.90;;;;;;5054898;28;20469;-77
2022/05/27 06:48:48;;;;;;;9.57;2.30;;;17.70;31.00;;;;;;5054831;28;20075;-77
2022/05/27 06:51:13;;;;;;;15.85;3.13;;;18.00;28.20;;;;;;5054739;28;20064;-77
2022/05/27 06:53:39;;;;;;;22.17;2.53;;;17.40;20.60;;;;;;5054835;28;20158;-77
2022/05/27 06:56:07;;;;;;;15.48;2.88;;;17.60;19.80;;;;;;5054441;28;20083;-77
2022/05/27 06:58:33;;;;;;;15.00;2.78;;;18.60;7.20;;;;;;5054864;28;20041;-77
2022/05/27 07:00:59;;;;;;;10.98;2.45;;;18.90;3.60;;;;;;5053906;28;20136;-77
2022/05/27 07:03:24;;;;;;;9.93;2.75;;;18.70;1.00;;;;;;5053333;28;20171;-77
2022/05/27 07:05:51;;;;;;;11.88;2.95;;;18.70;1.00;;;;;;5054626;28;20477;-77
2022/05/27 07:08:16;;;;;;;9.27;2.38;;;18.20;8.60;;;;;;5054471;28;20099;-77
2022/05/27 07:10:42;;;;;;;10.50;2.35;;;17.90;6.60;;;;;;5054216;28;20045;-77
2022/05/27 07:13:08;;;;;;;13.73;2.67;;;18.10;1.00;;;;;;5053349;28;20158;-77
2022/05/27 07:15:33;;;;;;;13.38;3.53;;;18.50;1.00;;;;;;5054128;28;20090;-77
2022/05/27 07:18:03;;;;;;;9.63;2.83;;;18.90;1.00;;;;;;5054267;28;20045;-77
2022/05/27 07:20:28;;;;;;;12.98;2.60;;;18.40;1.00;;;;;;5053044;28;20048;-77
2022/05/27 07:22:54;;;;;;;10.10;2.25;;;18.10;1.00;;;;;;5054043;28;20037;-77
2022/05/27 07:25:20;;;;;;;14.15;2.63;;;18.00;1.00;;;;;;5053864;28;20087;-77
2022/05/27 07:27:45;;;;;;;15.50;2.60;;;18.10;1.00;;;;;;5053113;28;20041;-78
2022/05/27 07:30:15;;;;;;;11.95;2.83;;;18.70;1.00;;;;;;5054218;28;20045;-77
2022/05/27 07:32:41;;;;;;;12.13;2.58;;;18.40;1.00;;;;;;5053845;28;20565;-78
2022/05/27 07:35:07;;;;;;;9.95;2.30;;;17.70;1.00;;;;;;5054054;28;20123;-78
2022/05/27 07:37:33;;;;;;;11.30;2.85;;;18.00;1.00;;;;;;5052560;28;20084;-77
2022/05/27 07:39:58;;;;;;;11.77;2.88;;;17.40;1.00;;;;;;5053546;28;20454;-77
2022/05/27 07:42:24;;;;;;;11.68;3.15;;;18.30;1.00;;;;;;5053811;28;20045;-78
2022/05/27 07:44:50;;;;;;;18.45;3.33;;;19.00;1.00;;;;;;5053638;28;20048;-77
2022/05/27 07:47:17;;;;;;;16.85;2.83;;;18.30;1.00;;;;;;5053653;28;20071;-78
2022/05/27 07:49:42;;;;;;;9.20;2.78;;;18.10;1.00;;;;;;5053743;28;20045;-77
2022/05/27 07:52:08;;;;;;;12.15;2.55;;;18.00;1.00;;;;;;5052407;28;20071;-77
2022/05/27 07:54:34;;;;;;;15.82;2.92;;;18.60;1.00;;;;;;5053597;28;20049;-78
2022/05/27 07:57:00;;;;;;;13.00;2.40;;;19.40;1.00;;;;;;5052853;28;20554;-77
2022/05/27 07:59:27;;;;;;;11.93;3.03;;;19.90;1.00;;;;;;5053300;28;20123;-77
2022/05/27 08:01:52;;;;;;;9.15;2.53;;;20.60;1.00;;;;;;5053438;28;20409;-78
2022/05/27 08:04:18;;;;;;;9.50;2.35;;;20.40;1.00;;;;;;5053695;28;20048;-77
2022/05/27 08:06:44;;;;;;;8.80;2.10;;;19.90;1.00;;;;;;5053417;28;20189;-77
2022/05/27 08:09:10;;;;;;;7.70;2.30;;;19.90;1.00;;;;;;5053288;28;20037;-77
2022/05/27 08:11:37;;;;;;;10.40;2.50;;;19.70;1.00;;;;;;5053301;28;20056;-77
2022/05/27 08:14:03;;;;;;;12.43;2.65;;;19.80;1.00;;;;;;5053225;28;20504;-78
2022/05/27 08:16:32;;;;;;;9.55;2.72;;;19.30;1.00;;;;;;5053116;28;20081;-78
2022/05/27 08:18:59;;;;;;;11.70;3.38;;;18.60;1.00;;;;;;5053067;28;20048;-77
2022/05/27 08:21:25;;;;;;;9.60;2.47;;;18.30;1.00;;;;;;5053009;28;20044;-78
2022/05/27 08:23:52;;;;;;;8.82;2.58;;;18.50;1.00;;;;;;5051714;28;20045;-78
2022/05/27 08:26:18;;;;;;;11.18;2.67;;;18.20;1.00;;;;;;5052851;28;20129;-77
2022/05/27 08:28:44;;;;;;;11.32;2.55;;;18.00;1.00;;;;;;5052940;28;20549;-78
2022/05/27 08:31:10;;;;;;;16.00;2.92;;;18.40;1.00;;;;;;5052877;28;20455;-78
2022/05/27 08:39:09;;;;;;;12.90;2.92;;;19.40;1.00;;;;;;5052794;28;20091;-77
2022/05/27 08:42:00;;;;;;;13.07;2.88;;;19.40;1.00;;;;;;5052633;28;20401;-78
2022/05/27 08:44:51;;;;;;;12.68;2.90;;;19.00;1.00;;;;;;5052571;28;20128;-78
2022/05/27 08:47:30;;;;;;;12.43;2.50;;;18.70;1.00;;;;;;5052659;28;20041;-77
2022/05/27 08:50:29;;;;;;;9.70;2.35;;;19.00;1.00;;;;;;5052670;28;20141;-77
2022/05/27 08:53:23;;;;;;;16.83;2.72;;;19.10;1.00;;;;;;5051356;28;20451;-77
2022/05/27 09:01:45;;;;;;;14.00;2.33;;;18.00;1.00;;;;;;5052187;28;20486;-77
2022/05/27 09:04:29;;;;;;;11.73;2.63;;;17.40;1.00;;;;;;5052563;28;20409;-77
2022/05/27 09:07:02;;;;;;;9.77;2.45;;;17.80;1.00;;;;;;5052352;28;20045;-77
2022/05/27 09:09:30;;;;;;;14.77;2.83;;;18.70;1.00;;;;;;5052412;28;20056;-77
2022/05/27 09:12:22;;;;;;;9.50;2.22;;;18.30;1.00;;;;;;5052151;28;20045;-77
2022/05/27 09:15:04;;;;;;;11.77;2.88;;;18.00;1.00;;;;;;5052380;28;20124;-77
2022/05/27 09:18:00;;;;;;;15.52;2.65;;;17.70;1.00;;;;;;5052258;28;20390;-78
2022/05/27 09:20:57;;;;;;;8.40;1.98;;;16.80;1.00;;;;;;5030651;28;20080;-77
2022/05/27 09:23:40;;;;;;;13.20;2.95;;;17.60;1.00;;;;;;5010810;28;20053;-77
2022/05/27 09:26:13;;;;;;;9.68;2.15;;;18.20;1.00;;;;;;5051961;28;20037;-77
2022/05/27 09:28:53;;;;;;;14.40;2.47;;;19.00;1.00;;;;;;5052340;28;20045;-77
2022/05/27 09:31:30;;;;;;;12.30;2.25;;;19.40;1.00;;;;;;5052019;28;20044;-77
2022/05/27 09:33:56;;;;;;;10.13;2.65;;;20.10;1.00;;;;;;5052089;28;20516;-77
2022/05/27 09:36:30;;;;;;;9.52;2.05;;;19.60;1.00;;;;;;5052167;28;20124;-77
2022/05/27 09:38:59;;;;;;;12.90;2.30;;;19.80;1.00;;;;;;5052077;28;20485;-77
2022/05/27 09:41:43;;;;;;;9.55;2.72;;;19.40;1.00;;;;;;5052090;28;20127;-77
2022/05/27 09:44:21;;;;;;;15.23;2.20;;;19.00;1.00;;;;;;5052409;28;20072;-77
2022/05/27 09:46:46;;;;;;;17.48;3.25;;;19.00;1.00;;;;;;5051905;28;20076;-77
2022/05/27 09:49:12;;;;;;;13.40;2.55;;;18.70;1.00;;;;;;5050621;28;20080;-77
2022/05/27 09:51:38;;;;;;;12.20;2.15;;;18.50;1.00;;;;;;5051886;28;20052;-77
2022/05/27 09:54:36;;;;;;;11.43;2.60;;;18.60;1.00;;;;;;5052099;28;20041;-77
2022/05/27 09:57:11;;;;;;;10.10;2.85;;;18.30;1.00;;;;;;5051734;28;20045;-77
2022/05/27 09:59:39;;;;;;;11.80;3.13;;;18.20;1.00;;;;;;5051653;28;20048;-77
2022/05/27 10:02:28;;;;;;;14.73;2.58;;;18.20;1.00;;;;;;5051905;28;20370;-77
2022/05/27 10:05:05;;;;;;;13.55;2.45;;;17.90;1.00;;;;;;5050710;28;20116;-77
2022/05/27 10:07:52;;;;;;;13.35;2.60;;;17.70;1.00;;;;;;5051960;28;20052;-76
2022/05/27 10:10:28;;;;;;;12.50;2.40;;;17.40;1.00;;;;;;5052010;28;20044;-76
2022/05/27 10:12:55;;;;;;;14.30;2.47;;;17.60;1.00;;;;;;5051948;28;20049;-76
2022/05/27 10:15:34;;;;;;;7.00;2.03;;;18.10;1.00;;;;;;5051625;28;20389;-76
2022/05/27 10:18:21;;;;;;;16.52;2.50;;;18.40;1.00;;;;;;5051812;28;20113;-77
2022/05/27 10:20:51;;;;;;;8.10;1.88;;;18.30;1.00;;;;;;5054740;28;20041;-77
2022/05/27 10:23:29;;;;;;;12.25;3.15;;;18.00;1.00;;;;;;5055205;28;20099;-77
2022/05/27 10:25:55;;;;;;;12.68;2.83;;;18.10;1.00;;;;;;5054961;28;20037;-77
2022/05/27 10:28:31;;;;;;;15.45;2.55;;;18.60;1.00;;;;;;5055062;28;20107;-77
2022/05/27 10:31:04;;;;;;;10.57;2.70;;;18.70;1.00;;;;;;5055040;28;20041;-76
2022/05/27 10:33:39;;;;;;;9.85;2.38;;;18.80;1.00;;;;;;5055172;28;20045;-77
2022/05/27 10:36:39;;;;;;;8.88;2.05;;;18.60;1.00;;;;;;5055297;28;20049;-77
2022/05/27 10:39:13;;;;;;;7.60;1.98;;;19.10;1.00;;;;;;5055007;28;20044;-76
2022/05/27 10:42:00;;;;;;;9.35;2.08;;;19.30;1.00;;;;;;5054951;28;20080;-76
2022/05/27 10:44:42;;;;;;;9.88;3.13;;;19.10;1.00;;;;;;5055109;28;20459;-76
2022/05/27 10:47:31;;;;;;;12.23;2.05;;;19.40;1.00;;;;;;5054807;28;20123;-76
2022/05/27 10:50:14;;;;;;;8.40;2.45;;;19.00;1.00;;;;;;5053503;28;20045;-77
2022/05/27 10:53:05;;;;;;;9.40;1.67;;;18.70;1.00;;;;;;5054867;28;20055;-76
2022/05/27 10:56:02;;;;;;;11.80;2.90;;;18.80;1.00;;;;;;5053307;28;20076;-77
2022/05/27 11:02:10;;;;;;;9.00;2.20;;;18.50;1.00;;;;;;5054214;28;20053;-76
2022/05/27 11:04:57;;;;;;;14.27;2.78;;;18.20;1.00;;;;;;5054767;28;20132;-76
2022/05/27 11:07:46;;;;;;;11.15;2.58;;;17.80;1.00;;;;;;5054649;28;20059;-76
2022/05/27 11:10:38;;;;;;;27.17;4.53;;;18.00;1.00;;;;;;5053038;28;20053;-76
2022/05/27 11:16:24;;;;;;;14.65;2.50;;;18.60;1.00;;;;;;5054135;28;20053;-76
2022/05/27 11:19:30;;;;;;;14.30;3.63;;;18.70;1.00;;;;;;5054256;28;20041;-76
2022/05/27 11:22:26;;;;;;;17.23;3.30;;;18.70;1.00;;;;;;5054326;28;20072;-76
2022/05/27 11:25:22;;;;;;;12.73;3.17;;;18.80;1.00;;;;;;5054027;28;20087;-76
2022/05/27 11:28:10;;;;;;;17.02;2.67;;;18.80;1.00;;;;;;5054288;28;20045;-76
2022/05/27 11:31:20;;;;;;;10.27;2.70;;;17.80;1.00;;;;;;5052950;28;20493;-76
2022/05/27 11:34:22;;;;;;;14.07;4.03;;;17.30;1.00;;;;;;5054253;28;20048;-76
2022/05/27 11:37:11;;;;;;;12.68;3.22;;;16.90;1.00;;;;;;5053925;28;20111;-75
2022/05/27 11:39:49;;;;;;;11.82;3.13;;;16.70;2.50;;;;;;5052574;28;20123;-76
2022/05/27 11:42:37;;;;;;;12.75;2.50;;;16.80;2.30;;;;;;5053924;28;20110;-75
2022/05/27 11:45:17;;;;;;;10.10;2.47;;;17.50;1.00;;;;;;5053656;28;20067;-76
2022/05/27 11:48:00;;;;;;;7.95;2.17;;;18.30;1.00;;;;;;5053533;28;20448;-76
2022/05/27 11:50:53;;;;;;;14.00;2.70;;;19.10;1.00;;;;;;5053889;28;20116;-75
2022/05/27 11:53:40;;;;;;;9.82;2.33;;;19.60;1.00;;;;;;5053735;28;20037;-76
2022/05/27 11:56:22;;;;;;;8.68;2.20;;;20.70;1.00;;;;;;5053621;28;20049;-76
2022/05/27 11:59:10;;;;;;;11.20;2.42;;;20.20;1.00;;;;;;5052559;28;20073;-76
2022/05/27 12:01:48;;;;;;;11.60;2.10;;;19.60;1.00;;;;;;5053015;28;20405;-76
2022/05/27 12:04:36;;;;;;;13.50;2.72;;;19.20;1.00;;;;;;5053520;28;20040;-76
2022/05/27 12:07:28;;;;;;;14.55;2.55;;;18.80;1.00;;;;;;5053527;28;20075;-76
2022/05/27 12:10:20;;;;;;;10.07;3.28;;;19.30;1.00;;;;;;5053302;28;20080;-76
2022/05/27 12:13:10;;;;;;;12.38;3.00;;;19.60;1.00;;;;;;5053260;28;20197;-76
2022/05/27 12:15:48;;;;;;;14.98;2.53;;;19.20;1.00;;;;;;5053025;28;20049;-76
2022/05/27 12:18:23;;;;;;;14.88;2.67;;;19.40;1.00;;;;;;5053229;28;20408;-76
2022/05/27 12:20:49;;;;;;;12.15;2.35;;;19.50;1.00;;;;;;5053049;28;20106;-76
2022/05/27 12:23:16;;;;;;;12.38;2.85;;;18.80;1.00;;;;;;5052850;28;20091;-76
2022/05/27 12:25:48;;;;;;;11.07;2.42;;;18.00;1.00;;;;;;5052823;28;20106;-76
2022/05/27 12:28:23;;;;;;;15.20;2.90;;;17.90;1.00;;;;;;5052848;28;20404;-76
2022/05/27 12:30:49;;;;;;;14.48;2.75;;;18.20;1.00;;;;;;5052727;28;20045;-76
2022/05/27 12:33:19;;;;;;;12.00;2.63;;;19.40;1.00;;;;;;5052760;28;20041;-76
2022/05/27 12:35:50;;;;;;;16.90;3.35;;;19.60;1.00;;;;;;5052812;28;20088;-75
2022/05/27 12:38:23;;;;;;;17.50;3.83;;;19.10;1.00;;;;;;5052717;28;20052;-76
2022/05/27 12:40:50;;;;;;;14.02;2.55;;;18.10;1.00;;;;;;5052644;28;20052;-76
2022/05/27 12:43:53;;;;;;;11.05;2.83;;;17.70;1.00;;;;;;5052411;28;20147;-76
2022/05/27 12:46:30;;;;;;;11.77;2.72;;;17.60;1.00;;;;;;5052415;28;20084;-75
2022/05/27 12:49:32;;;;;;;15.75;3.10;;;17.40;1.00;;;;;;5052771;28;20055;-75
2022/05/27 12:51:58;;;;;;;11.43;3.00;;;17.40;1.00;;;;;;5052663;28;20063;-75
2022/05/27 12:54:42;;;;;;;13.88;2.70;;;18.30;1.00;;;;;;5052537;28;20541;-76
2022/05/27 13:03:53;;;;;;;13.07;2.53;;;18.00;1.00;;;;;;5052351;28;20423;-75
2022/05/27 13:06:19;;;;;;;17.23;3.10;;;18.70;1.00;;;;;;4990898;28;20042;-75
2022/05/27 13:08:52;;;;;;;12.70;2.97;;;19.30;1.00;;;;;;4990854;28;20460;-75
2022/05/27 13:11:21;;;;;;;12.75;2.78;;;19.50;1.00;;;;;;5013488;28;20057;-75
2022/05/27 13:14:12;;;;;;;14.32;3.13;;;19.00;1.00;;;;;;5052503;28;20413;-75
2022/05/27 13:17:06;;;;;;;10.25;2.50;;;19.40;1.00;;;;;;5052188;28;20124;-75
2022/05/27 13:19:34;;;;;;;11.60;2.92;;;19.60;1.00;;;;;;5052204;28;20409;-75
2022/05/27 13:22:03;;;;;;;9.93;2.53;;;19.50;1.00;;;;;;5052045;28;20559;-75
2022/05/27 13:24:58;;;;;;;12.23;2.53;;;20.30;1.00;;;;;;5052266;28;20045;-75
2022/05/27 13:27:32;;;;;;;16.27;2.97;;;20.10;1.00;;;;;;5038589;28;20084;-75
2022/05/27 13:30:03;;;;;;;14.02;3.67;;;19.50;1.00;;;;;;5051893;28;20513;-75
2022/05/27 13:32:33;;;;;;;13.48;2.78;;;19.70;1.00;;;;;;5052106;28;20049;-75
2022/05/27 13:35:12;;;;;;;11.82;2.38;;;19.20;1.00;;;;;;5050894;28;20104;-75
2022/05/27 13:37:37;;;;;;;14.82;2.90;;;19.20;1.00;;;;;;5052102;28;20049;-75
2022/05/27 13:40:15;;;;;;;18.25;2.83;;;19.80;1.00;;;;;;5051818;28;20490;-75
2022/05/27 13:42:46;;;;;;;13.75;3.00;;;19.30;1.00;;;;;;5051859;28;20041;-75
2022/05/27 13:45:34;;;;;;;14.25;4.05;;;18.30;1.00;;;;;;5051953;28;20044;-75
2022/05/27 13:48:18;;;;;;;15.50;3.10;;;17.00;1.00;;;;;;5041176;28;20049;-75
2022/05/27 13:50:46;;;;;;;10.70;2.70;;;17.10;1.00;;;;;;5052177;28;20346;-75
2022/05/27 13:53:25;;;;;;;11.27;2.97;;;17.00;1.00;;;;;;5051890;28;20052;-75
2022/05/27 13:56:04;;;;;;;9.45;2.10;;;17.20;1.00;;;;;;5055279;28;20045;-76
2022/05/27 13:58:31;;;;;;;14.98;2.97;;;17.70;1.00;;;;;;5054523;28;20091;-75
2022/05/27 14:01:03;;;;;;;13.38;2.42;;;17.50;1.00;;;;;;5055053;28;20386;-75